Time;durP1;ratioP1;P1;durP2;ratioP2;P2;SDS_P1;SDS_P2;PMS_P1;PMS_P2;Temp;Humidity;BMP_temperature;BMP_pressure;BME280_temperature;BME280_humidity;BME280_pressure;Samples;Min_cycle;Max_cycle;Signal;HPM_P1;HPM_P2
2021/01/02 00:00:23;;;;;;;41.60;29.57;;;;;;;-144.99;100.00;52574.47;5050197;28;21255;-75
2021/01/02 00:03:12;;;;;;;47.10;31.73;;;;;;;-144.99;100.00;52562.25;5048828;28;20657;-75
2021/01/02 00:05:47;;;;;;;43.80;29.73;;;;;;;-144.99;100.00;52558.16;5050531;28;21332;-74
2021/01/02 00:08:15;;;;;;;43.77;28.40;;;;;;;-144.99;100.00;52570.38;5051507;28;20796;-75
2021/01/02 00:11:20;;;;;;;43.50;29.53;;;;;;;-144.99;100.00;52545.94;5052782;28;20731;-75
2021/01/02 00:14:13;;;;;;;46.90;31.00;;;;;;;-144.99;100.00;52566.31;5027973;28;20655;-75
2021/01/02 00:17:16;;;;;;;41.20;28.40;;;;;;;-144.99;100.00;52547.97;5046008;28;21252;-76
2021/01/02 00:20:05;;;;;;;39.23;27.20;;;;;;;-144.99;100.00;52578.53;5048536;28;20663;-76
2021/01/02 00:22:41;;;;;;;40.47;27.70;;;;;;;-144.99;100.00;52537.78;5048073;28;20643;-79
2021/01/02 00:25:12;;;;;;;36.37;24.43;;;;;;;-144.99;100.00;52541.84;5050053;28;20933;-76
2021/01/02 00:27:58;;;;;;;46.73;26.87;;;;;;;-144.99;100.00;52517.41;5048327;28;20622;-78
2021/01/02 00:30:57;;;;;;;46.27;27.93;;;;;;;-144.99;100.00;52545.94;5042001;28;21204;-78
2021/01/02 00:33:43;;;;;;;41.10;26.40;;;;;;;-144.99;100.00;52541.84;5038471;28;20679;-78
2021/01/02 00:36:17;;;;;;;40.20;29.90;;;;;;;-144.99;100.00;52550.00;5047496;28;21047;-78
2021/01/02 00:38:46;;;;;;;37.27;26.83;;;;;;;-144.99;100.00;52550.00;5046641;28;20655;-75
2021/01/02 00:41:13;;;;;;;36.40;25.73;;;;;;;-144.99;100.00;52562.25;5045410;28;20638;-76
2021/01/02 00:43:39;;;;;;;36.70;25.40;;;;;;;-144.99;100.00;52517.41;5050452;28;20632;-76
2021/01/02 00:46:06;;;;;;;37.97;26.07;;;;;;;-144.99;100.00;52533.69;5049451;28;20994;-77
2021/01/02 00:48:32;;;;;;;39.67;23.97;;;;;;;-144.99;100.00;52509.25;5052376;28;21191;-78
2021/01/02 00:51:01;;;;;;;41.50;27.47;;;;;;;-144.99;100.00;52566.31;5048822;28;20666;-77
2021/01/02 00:53:47;;;;;;;37.97;25.77;;;;;;;-144.99;100.00;52550.00;5053435;28;20650;-77
2021/01/02 00:56:33;;;;;;;35.80;24.63;;;;;;;-144.99;100.00;52584.66;5050748;28;20650;-77
2021/01/02 00:59:34;;;;;;;43.73;28.67;;;;;;;-144.99;100.00;52545.94;5045770;28;21033;-78
2021/01/02 01:02:51;;;;;;;32.73;24.20;;;;;;;-144.99;100.00;52521.47;5042857;28;21003;-77
2021/01/02 01:05:21;;;;;;;42.20;26.60;;;;;;;-144.99;100.00;52517.41;5046666;28;20695;-79
2021/01/02 01:07:53;;;;;;;41.10;26.97;;;;;;;-144.99;100.00;52529.63;5045952;28;20710;-77
2021/01/02 01:10:22;;;;;;;42.07;25.10;;;;;;;-144.99;100.00;52533.69;5044251;28;20624;-78
2021/01/02 01:12:56;;;;;;;33.87;24.07;;;;;;;-144.99;100.00;52537.78;5043037;28;20730;-78
2021/01/02 01:15:23;;;;;;;41.60;27.47;;;;;;;-144.99;100.00;52572.44;5042997;28;20733;-77
2021/01/02 01:18:14;;;;;;;36.33;24.20;;;;;;;-144.99;100.00;52519.44;5045807;28;21012;-76
2021/01/02 01:20:45;;;;;;;35.93;25.17;;;;;;;-144.99;100.00;52537.78;5042364;28;20744;-76
2021/01/02 01:23:26;;;;;;;41.10;26.37;;;;;;;-144.99;100.00;52517.41;5047612;28;20627;-77
2021/01/02 01:26:13;;;;;;;33.83;27.37;;;;;;;-144.99;100.00;52537.78;5047180;28;20777;-77
2021/01/02 01:28:40;;;;;;;34.73;23.80;;;;;;;-144.99;100.00;52572.44;5049731;28;20674;-76
2021/01/02 01:31:10;;;;;;;29.27;23.83;;;;;;;-144.99;100.00;52554.09;5048449;28;21281;-76
2021/01/02 01:33:40;;;;;;;40.90;25.87;;;;;;;-144.99;100.00;52509.25;5053271;28;20738;-76
2021/01/02 01:36:07;;;;;;;33.47;25.63;;;;;;;-144.99;100.00;52545.94;5048415;28;20972;-78
2021/01/02 01:38:34;;;;;;;33.30;23.70;;;;;;;-144.99;100.00;52545.94;5051682;28;20702;-77
2021/01/02 01:41:12;;;;;;;30.53;22.17;;;;;;;-144.99;100.00;52594.84;5048954;28;21068;-77
2021/01/02 01:44:23;;;;;;;37.10;24.07;;;;;;;-144.99;100.00;52537.78;5042321;28;20637;-78
2021/01/02 01:46:52;;;;;;;32.53;23.17;;;;;;;-144.99;100.00;52539.81;5047791;28;20735;-77
2021/01/02 01:50:00;;;;;;;34.77;24.90;;;;;;;-144.99;100.00;52519.44;4699945;28;10000255;-76
2021/01/02 01:52:41;;;;;;;36.77;22.90;;;;;;;-144.99;100.00;52566.31;5045163;28;20208;-77
2021/01/02 01:55:09;;;;;;;28.67;22.13;;;;;;;-144.99;100.00;52586.69;5046053;28;20667;-77
2021/01/02 01:57:40;;;;;;;27.90;21.97;;;;;;;-144.99;100.00;52529.63;5046494;28;20676;-78
2021/01/02 02:00:14;;;;;;;34.03;21.93;;;;;;;-144.99;100.00;52541.84;5056344;28;20953;-76
2021/01/02 02:03:11;;;;;;;33.53;23.20;;;;;;;-144.99;100.00;52568.34;5047419;28;20635;-76
2021/01/02 02:05:59;;;;;;;31.90;21.20;;;;;;;-144.99;100.00;52554.09;5048011;28;20663;-74
2021/01/02 02:08:40;;;;;;;31.43;20.13;;;;;;;-144.99;100.00;52525.56;5047591;28;20615;-75
2021/01/02 02:11:07;;;;;;;31.73;20.60;;;;;;;-144.99;100.00;52539.81;5046944;28;20620;-75
2021/01/02 02:13:43;;;;;;;29.53;21.83;;;;;;;-144.99;100.00;52560.19;5047300;28;20663;-77
2021/01/02 02:16:12;;;;;;;30.27;19.90;;;;;;;-144.99;100.00;52545.94;5048207;28;21268;-75
2021/01/02 02:18:43;;;;;;;29.80;21.97;;;;;;;-144.99;100.00;52537.78;5040814;28;20671;-77
2021/01/02 02:21:11;;;;;;;29.03;19.90;;;;;;;-144.99;100.00;52529.63;5042138;28;20624;-76
2021/01/02 02:23:42;;;;;;;29.63;21.50;;;;;;;-144.99;100.00;52552.03;5048278;28;20663;-77
2021/01/02 02:26:23;;;;;;;33.57;22.67;;;;;;;-144.99;100.00;52525.56;5055672;28;21058;-76
2021/01/02 02:29:27;;;;;;;28.00;19.87;;;;;;;-144.99;100.00;52554.09;5041487;28;20667;-74
2021/01/02 02:31:56;;;;;;;33.60;23.13;;;;;;;-144.99;100.00;52566.31;5043154;28;20666;-74
2021/01/02 02:34:23;;;;;;;32.07;22.50;;;;;;;-144.99;100.00;52570.38;5045452;28;20758;-75
2021/01/02 02:36:50;;;;;;;37.33;23.77;;;;;;;-144.99;100.00;52545.94;5046412;28;20628;-75
2021/01/02 02:39:17;;;;;;;34.43;22.97;;;;;;;-144.99;100.00;52517.41;5048636;28;20679;-75
2021/01/02 02:41:47;;;;;;;28.97;20.33;;;;;;;-144.99;100.00;52582.63;5050317;28;20719;-75
2021/01/02 02:44:16;;;;;;;27.00;19.83;;;;;;;-144.99;100.00;52566.31;5049859;28;20690;-76
2021/01/02 02:46:44;;;;;;;33.00;21.57;;;;;;;-144.99;100.00;52537.78;5049540;28;20640;-76
2021/01/02 02:49:13;;;;;;;34.07;22.13;;;;;;;-144.99;100.00;52541.84;5051140;28;20734;-75
2021/01/02 02:51:47;;;;;;;33.80;24.53;;;;;;;-144.99;100.00;52545.94;5049252;28;20722;-75
2021/01/02 02:54:15;;;;;;;34.50;24.07;;;;;;;-144.99;100.00;52533.69;5042815;28;20685;-75
2021/01/02 02:56:42;;;;;;;30.30;22.13;;;;;;;-144.99;100.00;52517.41;5051153;28;20636;-76
2021/01/02 02:59:11;;;;;;;27.07;20.30;;;;;;;-144.99;100.00;52525.56;5046625;28;20636;-76
2021/01/02 03:01:37;;;;;;;36.30;21.03;;;;;;;-144.99;100.00;52545.94;5047488;28;20631;-76
2021/01/02 03:04:03;;;;;;;37.33;24.00;;;;;;;-144.99;100.00;52537.78;5043971;28;21228;-76
2021/01/02 03:06:31;;;;;;;31.50;21.07;;;;;;;-144.99;100.00;52545.94;5055426;28;20669;-77
2021/01/02 03:08:58;;;;;;;31.77;22.40;;;;;;;-144.99;100.00;52533.69;5043228;28;20639;-76
2021/01/02 03:11:25;;;;;;;34.87;23.70;;;;;;;-144.99;100.00;52564.28;5053076;28;21039;-76
2021/01/02 03:13:52;;;;;;;33.47;23.07;;;;;;;-144.99;100.00;52537.78;5049517;28;20750;-76
2021/01/02 03:16:19;;;;;;;31.67;22.47;;;;;;;-144.99;100.00;52560.19;5047891;28;20713;-76
2021/01/02 03:18:45;;;;;;;28.97;22.70;;;;;;;-144.99;100.00;52521.47;5052202;28;21079;-74
2021/01/02 03:21:11;;;;;;;35.80;26.77;;;;;;;-144.99;100.00;52525.56;5046882;28;20718;-75
2021/01/02 03:23:43;;;;;;;29.97;21.23;;;;;;;-144.99;100.00;52509.25;5056877;28;20659;-76
2021/01/02 03:26:10;;;;;;;30.30;22.67;;;;;;;-144.99;100.00;52550.00;5050644;28;20621;-78
2021/01/02 03:28:37;;;;;;;32.80;23.00;;;;;;;-144.99;100.00;52562.25;5052894;28;21168;-76
2021/01/02 03:31:03;;;;;;;32.40;22.80;;;;;;;-144.99;100.00;52537.78;5056198;28;20670;-77
2021/01/02 03:33:29;;;;;;;37.37;23.50;;;;;;;-144.99;100.00;52541.84;5059708;28;20820;-77
2021/01/02 03:36:00;;;;;;;30.23;23.00;;;;;;;-144.99;100.00;52525.56;5066292;28;20659;-76
2021/01/02 03:38:29;;;;;;;33.67;24.33;;;;;;;-144.99;100.00;52525.56;5053432;28;20688;-76
2021/01/02 03:40:55;;;;;;;31.33;24.17;;;;;;;-144.99;100.00;52537.78;5053627;28;20696;-75
2021/01/02 03:43:22;;;;;;;35.17;24.53;;;;;;;-144.99;100.00;52527.59;5056526;28;21501;-75
2021/01/02 03:45:49;;;;;;;35.37;25.93;;;;;;;-144.99;100.00;52533.69;5063089;28;20627;-76
2021/01/02 03:48:15;;;;;;;33.43;23.63;;;;;;;-144.99;100.00;52574.47;5058522;28;20667;-74
2021/01/02 03:50:41;;;;;;;33.13;25.13;;;;;;;-144.99;100.00;52566.31;5049303;28;20660;-74
2021/01/02 03:53:08;;;;;;;34.70;25.80;;;;;;;-144.99;100.00;52505.16;5048147;28;20812;-74
2021/01/02 03:55:34;;;;;;;34.80;25.07;;;;;;;-144.99;100.00;52558.16;5056406;28;20702;-76
2021/01/02 03:58:00;;;;;;;37.73;25.30;;;;;;;-144.99;100.00;52550.00;5051057;28;20624;-75
2021/01/02 04:00:26;;;;;;;37.23;26.57;;;;;;;-144.99;100.00;52525.56;5053979;28;20845;-75
2021/01/02 04:02:53;;;;;;;29.97;23.20;;;;;;;-144.99;100.00;52570.38;5048504;28;20663;-76
2021/01/02 04:05:19;;;;;;;39.57;26.67;;;;;;;-144.99;100.00;52552.03;5050792;28;20754;-76
2021/01/02 04:07:46;;;;;;;33.10;25.70;;;;;;;-144.99;100.00;52541.84;5038849;28;20702;-75
2021/01/02 04:10:13;;;;;;;33.33;24.97;;;;;;;-144.99;100.00;52550.00;5050380;28;20663;-74
2021/01/02 04:12:39;;;;;;;32.43;24.07;;;;;;;-144.99;100.00;52513.31;5050110;28;20619;-74
2021/01/02 04:15:07;;;;;;;35.43;25.13;;;;;;;-144.99;100.00;52521.47;5051470;28;20709;-75
2021/01/02 04:17:33;;;;;;;40.63;27.20;;;;;;;-144.99;100.00;52505.16;5049577;28;20682;-74
2021/01/02 04:20:00;;;;;;;42.83;29.00;;;;;;;-144.99;100.00;52527.59;5050627;28;20660;-75
2021/01/02 04:22:26;;;;;;;40.50;29.53;;;;;;;-144.99;100.00;52521.47;5054142;28;20622;-75
2021/01/02 04:24:52;;;;;;;38.50;26.43;;;;;;;-144.99;100.00;52539.81;5041698;28;20637;-76
2021/01/02 04:27:18;;;;;;;39.23;26.67;;;;;;;-144.99;100.00;52513.31;5055160;28;20635;-76
2021/01/02 04:29:45;;;;;;;39.13;26.80;;;;;;;-144.99;100.00;52550.00;5056775;28;20665;-75
2021/01/02 04:32:11;;;;;;;35.07;25.73;;;;;;;-144.99;100.00;52564.28;5055397;28;20630;-76
2021/01/02 04:34:37;;;;;;;37.73;27.07;;;;;;;-144.99;100.00;52533.69;5046926;28;20651;-76
2021/01/02 04:37:04;;;;;;;37.47;28.13;;;;;;;-144.99;100.00;52513.31;5049686;28;20663;-76
2021/01/02 04:39:30;;;;;;;38.27;26.97;;;;;;;-144.99;100.00;52533.69;5045616;28;20735;-76
2021/01/02 04:41:56;;;;;;;38.60;26.03;;;;;;;-144.99;100.00;52521.47;5051421;28;20660;-76
2021/01/02 04:44:23;;;;;;;39.40;28.27;;;;;;;-144.99;100.00;52525.56;5052774;28;20663;-77
2021/01/02 04:46:50;;;;;;;36.77;26.60;;;;;;;-144.99;100.00;52515.34;5050262;28;20627;-76
2021/01/02 04:49:16;;;;;;;39.00;29.40;;;;;;;-144.99;100.00;52541.84;5050212;28;20674;-76
2021/01/02 04:51:42;;;;;;;44.03;29.53;;;;;;;-144.99;100.00;52537.78;5047980;28;20640;-77
2021/01/02 04:54:10;;;;;;;42.00;29.60;;;;;;;-144.99;100.00;52523.50;5029531;28;588035;-75
2021/01/02 04:56:38;;;;;;;34.87;26.53;;;;;;;-144.99;100.00;52484.78;5053994;28;20701;-76
2021/01/02 04:59:09;;;;;;;40.70;28.20;;;;;;;-144.99;100.00;52521.47;5052148;28;20713;-76
2021/01/02 05:01:37;;;;;;;32.70;26.97;;;;;;;-144.99;100.00;52554.09;5048304;28;20659;-76
2021/01/02 05:04:03;;;;;;;44.97;31.60;;;;;;;-144.99;100.00;52533.69;5053933;28;21037;-76
2021/01/02 05:06:30;;;;;;;39.27;28.80;;;;;;;-144.99;100.00;52517.41;5044422;28;20678;-76
2021/01/02 05:08:56;;;;;;;38.97;28.77;;;;;;;-144.99;100.00;52529.63;5050783;28;21112;-75
2021/01/02 05:11:24;;;;;;;37.10;26.07;;;;;;;-144.99;100.00;52529.63;5048336;28;20659;-76
2021/01/02 05:14:00;;;;;;;43.07;30.60;;;;;;;-144.99;100.00;52513.31;5049086;28;20755;-75
2021/01/02 05:16:34;;;;;;;44.70;27.70;;;;;;;-144.99;100.00;52537.78;5047934;28;20650;-75
2021/01/02 05:19:02;;;;;;;39.00;27.93;;;;;;;-144.99;100.00;52554.09;5052566;28;20650;-75
2021/01/02 05:21:29;;;;;;;42.13;28.07;;;;;;;-144.99;100.00;52578.53;5048777;28;20723;-74
2021/01/02 05:24:03;;;;;;;44.90;28.37;;;;;;;-144.99;100.00;52525.56;5055432;28;20747;-75
2021/01/02 05:26:31;;;;;;;40.60;29.13;;;;;;;-144.99;100.00;52537.78;5049073;28;20655;-74
2021/01/02 05:29:20;;;;;;;45.20;31.73;;;;;;;-144.99;100.00;52537.78;5051478;28;20654;-75
2021/01/02 05:31:51;;;;;;;36.47;27.30;;;;;;;-144.99;100.00;52545.94;5049122;28;20711;-74
2021/01/02 05:34:19;;;;;;;38.40;27.97;;;;;;;-144.99;100.00;52513.31;5050794;28;20664;-75
2021/01/02 05:36:45;;;;;;;32.13;27.80;;;;;;;-144.99;100.00;52521.47;5047374;28;20724;-75
2021/01/02 05:39:17;;;;;;;35.80;28.67;;;;;;;-144.99;100.00;52517.41;5051093;28;20951;-74
2021/01/02 05:41:49;;;;;;;36.40;26.07;;;;;;;-144.99;100.00;52525.56;5046869;28;20624;-74
2021/01/02 05:44:16;;;;;;;39.90;30.87;;;;;;;-144.99;100.00;52533.69;5052030;28;20659;-73
2021/01/02 05:46:46;;;;;;;40.77;29.57;;;;;;;-144.99;100.00;52492.94;5050762;28;21173;-75
2021/01/02 05:49:32;;;;;;;34.93;26.00;;;;;;;-144.99;100.00;52547.97;5050837;28;20663;-75
2021/01/02 05:52:00;;;;;;;32.47;24.57;;;;;;;-144.99;100.00;52545.94;5051987;28;20753;-74
2021/01/02 05:54:27;;;;;;;39.87;29.80;;;;;;;-144.99;100.00;52554.09;5052803;28;20758;-75
2021/01/02 05:56:59;;;;;;;36.10;27.60;;;;;;;-144.99;100.00;52550.00;5061209;28;20642;-75
2021/01/02 05:59:34;;;;;;;38.57;26.17;;;;;;;-144.99;100.00;52515.34;5042588;28;20641;-74
2021/01/02 06:02:21;;;;;;;41.80;27.20;;;;;;;-144.99;100.00;52521.47;5050055;28;20623;-75
2021/01/02 06:04:57;;;;;;;39.60;29.47;;;;;;;-144.99;100.00;52554.09;5047706;28;21119;-73
2021/01/02 06:07:24;;;;;;;37.63;26.73;;;;;;;-144.99;100.00;52533.69;5044723;28;20664;-73
2021/01/02 06:09:51;;;;;;;39.97;28.87;;;;;;;-144.99;100.00;52517.41;5048665;28;20650;-74
2021/01/02 06:12:26;;;;;;;35.20;26.17;;;;;;;-144.99;100.00;52541.84;5049413;28;20735;-72
2021/01/02 06:14:54;;;;;;;41.63;27.03;;;;;;;-144.99;100.00;52545.94;5049250;28;20683;-73
2021/01/02 06:17:28;;;;;;;33.13;27.10;;;;;;;-144.99;100.00;52562.25;5050178;28;20616;-73
2021/01/02 06:19:54;;;;;;;35.37;25.90;;;;;;;-144.99;100.00;52525.56;5048818;28;20687;-73
2021/01/02 06:22:21;;;;;;;34.90;27.10;;;;;;;-144.99;100.00;52558.16;5044047;28;20640;-76
2021/01/02 06:24:49;;;;;;;35.17;25.83;;;;;;;-144.99;100.00;52533.69;5050980;28;20734;-75
2021/01/02 06:27:16;;;;;;;37.73;26.87;;;;;;;-144.99;100.00;52521.47;5052615;28;20637;-76
2021/01/02 06:29:47;;;;;;;39.97;29.73;;;;;;;-144.99;100.00;52545.94;5050728;28;20730;-75
2021/01/02 06:32:14;;;;;;;33.80;26.10;;;;;;;-144.99;100.00;52550.00;5049909;28;21248;-75
2021/01/02 06:34:40;;;;;;;35.23;25.20;;;;;;;-144.99;100.00;52517.41;5046529;28;20727;-75
2021/01/02 06:37:06;;;;;;;40.30;30.43;;;;;;;-144.99;100.00;52497.00;5047087;28;20702;-74
2021/01/02 06:39:34;;;;;;;42.30;30.10;;;;;;;-144.99;100.00;52513.31;5047985;28;20680;-74
2021/01/02 06:42:01;;;;;;;32.43;25.87;;;;;;;-144.99;100.00;52525.56;5048845;28;20645;-71
2021/01/02 06:44:42;;;;;;;35.23;26.47;;;;;;;-144.99;100.00;52562.25;5048669;28;20651;-75
2021/01/02 06:47:19;;;;;;;44.77;28.53;;;;;;;-144.99;100.00;52517.41;5055198;28;20622;-73
2021/01/02 06:49:47;;;;;;;39.00;25.73;;;;;;;-144.99;100.00;52533.69;5055612;28;20671;-77
2021/01/02 06:52:29;;;;;;;42.33;27.63;;;;;;;-144.99;100.00;52545.94;5049157;28;21153;-78
2021/01/02 06:55:15;;;;;;;46.63;31.70;;;;;;;-144.99;100.00;52560.19;5050344;28;20747;-77
2021/01/02 06:57:41;;;;;;;36.40;26.77;;;;;;;-144.99;100.00;52523.50;5054064;28;20690;-77
2021/01/02 07:00:19;;;;;;;38.70;29.07;;;;;;;-144.99;100.00;52497.00;5043687;28;20692;-78
2021/01/02 07:02:47;;;;;;;35.03;27.57;;;;;;;-144.99;100.00;52566.31;5048001;28;20638;-78
2021/01/02 07:05:42;;;;;;;36.43;25.80;;;;;;;-144.99;100.00;52537.78;5047316;28;20764;-78
2021/01/02 07:08:41;;;;;;;39.83;27.17;;;;;;;-144.99;100.00;52554.09;5045465;28;20999;-76
2021/01/02 07:11:22;;;;;;;42.17;26.63;;;;;;;-144.99;100.00;52480.72;5047184;28;20670;-78
2021/01/02 07:13:48;;;;;;;36.67;28.97;;;;;;;-144.99;100.00;52550.00;5046506;28;20773;-77
2021/01/02 07:16:30;;;;;;;37.73;28.60;;;;;;;-144.99;100.00;52537.78;5053488;28;20631;-76
2021/01/02 07:18:57;;;;;;;39.73;28.40;;;;;;;-144.99;100.00;52525.56;5043256;28;20694;-76
2021/01/02 07:21:33;;;;;;;34.80;26.80;;;;;;;-144.99;100.00;52521.47;5051934;28;20722;-76
2021/01/02 07:24:21;;;;;;;38.03;27.17;;;;;;;-144.99;100.00;52568.34;5047040;28;20750;-74
2021/01/02 07:26:47;;;;;;;36.77;28.13;;;;;;;-144.99;100.00;52521.47;5050465;28;20642;-74
2021/01/02 07:29:20;;;;;;;43.43;27.77;;;;;;;-144.99;100.00;52574.47;5049299;28;20654;-74
2021/01/02 07:31:46;;;;;;;35.40;26.13;;;;;;;-144.99;100.00;52513.31;5051344;28;20686;-74
2021/01/02 07:34:23;;;;;;;40.20;28.53;;;;;;;-144.99;100.00;52566.31;5047526;28;20742;-74
2021/01/02 07:36:50;;;;;;;34.23;25.17;;;;;;;-144.99;100.00;52554.09;5046158;28;20739;-72
2021/01/02 07:39:17;;;;;;;40.77;29.17;;;;;;;-144.99;100.00;52529.63;5047789;28;20750;-74
2021/01/02 07:41:44;;;;;;;37.73;27.40;;;;;;;-144.99;100.00;52558.16;5048566;28;20620;-73
2021/01/02 07:44:10;;;;;;;39.83;28.47;;;;;;;-144.99;100.00;52509.25;5048579;28;20758;-74
2021/01/02 07:46:43;;;;;;;35.03;27.03;;;;;;;-144.99;100.00;52494.97;5048011;28;20646;-73
2021/01/02 07:49:09;;;;;;;40.73;27.43;;;;;;;-144.99;100.00;52545.94;5057166;28;20634;-72
2021/01/02 07:51:36;;;;;;;35.63;26.50;;;;;;;-144.99;100.00;52545.94;5059718;28;20631;-74
2021/01/02 07:54:03;;;;;;;46.60;30.87;;;;;;;-144.99;100.00;52562.25;5045570;28;20735;-73
2021/01/02 07:56:33;;;;;;;45.67;28.73;;;;;;;-144.99;100.00;52497.00;5046008;28;20651;-74
2021/01/02 07:59:20;;;;;;;34.60;27.03;;;;;;;-144.99;100.00;52525.56;5041097;28;21280;-72
2021/01/02 08:01:49;;;;;;;38.93;25.60;;;;;;;-144.99;100.00;52525.56;5045460;28;20620;-74
2021/01/02 08:04:15;;;;;;;39.20;27.63;;;;;;;-144.99;100.00;52541.84;5051994;28;20655;-73
2021/01/02 08:06:48;;;;;;;37.00;27.53;;;;;;;-144.99;100.00;52556.13;5046789;28;20674;-74
2021/01/02 08:09:14;;;;;;;38.47;28.80;;;;;;;-144.99;100.00;52541.84;5050752;28;20734;-75
2021/01/02 08:12:03;;;;;;;38.00;28.77;;;;;;;-144.99;100.00;52600.97;5052031;28;20742;-77
2021/01/02 08:14:33;;;;;;;34.17;24.13;;;;;;;-144.99;100.00;52484.78;5046123;28;20746;-75
2021/01/02 08:17:05;;;;;;;36.37;25.83;;;;;;;-144.99;100.00;52513.31;5050589;28;20651;-76
2021/01/02 08:19:34;;;;;;;34.93;24.40;;;;;;;-144.99;100.00;52527.59;5049596;28;20643;-76
2021/01/02 08:22:03;;;;;;;35.43;25.33;;;;;;;-144.99;100.00;52515.34;5052531;28;20671;-72
2021/01/02 08:24:29;;;;;;;38.57;27.33;;;;;;;-144.99;100.00;52525.56;5052302;28;20735;-76
2021/01/02 08:26:56;;;;;;;35.77;26.87;;;;;;;-144.99;100.00;52537.78;5049705;28;20659;-75
2021/01/02 08:29:24;;;;;;;38.33;26.57;;;;;;;-144.99;100.00;52525.56;5052609;28;20626;-75
2021/01/02 08:31:54;;;;;;;31.77;26.13;;;;;;;-144.99;100.00;52550.00;5046972;28;20686;-77
2021/01/02 08:34:26;;;;;;;34.43;23.73;;;;;;;-144.99;100.00;52541.84;5048291;28;21224;-75
2021/01/02 08:37:06;;;;;;;38.77;26.67;;;;;;;-144.99;100.00;52513.31;5052066;28;21327;-75
2021/01/02 08:39:33;;;;;;;37.13;25.80;;;;;;;-144.99;100.00;52568.34;5071451;28;20659;-75
2021/01/02 08:42:00;;;;;;;40.60;25.83;;;;;;;-144.99;100.00;52562.25;5072108;28;20695;-75
2021/01/02 08:44:29;;;;;;;34.60;21.57;;;;;;;-144.99;100.00;52547.97;5062337;28;20651;-76
2021/01/02 08:46:55;;;;;;;35.40;25.73;;;;;;;-144.99;100.00;52525.56;5052520;28;20726;-75
2021/01/02 08:49:41;;;;;;;37.00;25.63;;;;;;;-144.99;100.00;52578.53;5047118;28;20624;-77
2021/01/02 08:52:32;;;;;;;39.37;24.70;;;;;;;-144.99;100.00;52582.63;5052807;28;20666;-76
2021/01/02 08:55:10;;;;;;;34.50;25.87;;;;;;;-144.99;100.00;52505.16;5049663;28;20664;-76
2021/01/02 08:57:44;;;;;;;37.70;24.90;;;;;;;-144.99;100.00;52497.00;5050754;28;20681;-76
2021/01/02 09:00:21;;;;;;;34.73;25.70;;;;;;;-144.99;100.00;52541.84;5051698;28;20690;-77
2021/01/02 09:02:50;;;;;;;32.67;24.00;;;;;;;-144.99;100.00;52554.09;5050660;28;20719;-77
2021/01/02 09:05:17;;;;;;;31.30;25.30;;;;;;;-144.99;100.00;52513.31;5065498;28;20706;-76
2021/01/02 09:07:55;;;;;;;39.43;28.37;;;;;;;-144.99;100.00;52558.16;5059683;28;20713;-76
2021/01/02 09:10:34;;;;;;;38.07;28.77;;;;;;;-144.99;100.00;52490.91;5046850;28;20716;-76
2021/01/02 09:13:08;;;;;;;38.97;27.33;;;;;;;-144.99;100.00;52570.38;5049626;28;20662;-76
2021/01/02 09:15:55;;;;;;;39.10;27.57;;;;;;;-144.99;100.00;52537.78;5049123;28;21250;-77
2021/01/02 09:18:38;;;;;;;35.37;25.07;;;;;;;-144.99;100.00;52537.78;5053541;28;20635;-78
2021/01/02 09:21:22;;;;;;;37.63;27.77;;;;;;;-144.99;100.00;52517.41;5043638;28;20635;-77
2021/01/02 09:23:49;;;;;;;34.87;27.93;;;;;;;-144.99;100.00;52517.41;5056412;28;20759;-78
2021/01/02 09:26:24;;;;;;;42.37;28.70;;;;;;;-144.99;100.00;52529.63;5052892;28;20662;-77
2021/01/02 09:28:52;;;;;;;37.40;27.00;;;;;;;-144.99;100.00;52484.78;5050368;28;20714;-77
2021/01/02 09:31:18;;;;;;;42.20;30.13;;;;;;;-144.99;100.00;52550.00;5050395;28;20766;-76
2021/01/02 09:33:45;;;;;;;38.87;27.73;;;;;;;-144.99;100.00;52513.31;5052175;28;20720;-75
2021/01/02 09:36:13;;;;;;;43.17;30.50;;;;;;;-144.99;100.00;52541.84;5058799;28;21145;-78
2021/01/02 09:38:40;;;;;;;41.57;30.40;;;;;;;-144.99;100.00;52533.69;5057208;28;20675;-77
2021/01/02 09:41:07;;;;;;;35.77;27.97;;;;;;;-144.99;100.00;52529.63;5058952;28;20866;-78
2021/01/02 09:43:37;;;;;;;41.43;28.00;;;;;;;-144.99;100.00;52533.69;5051532;28;20663;-78
2021/01/02 09:46:03;;;;;;;38.37;28.23;;;;;;;-144.99;100.00;52490.91;5060476;28;20682;-77
2021/01/02 09:48:29;;;;;;;41.37;28.70;;;;;;;-144.99;100.00;52558.16;5048067;28;20752;-78
2021/01/02 09:50:55;;;;;;;38.83;29.53;;;;;;;-144.99;100.00;52529.63;5053273;28;21046;-76
2021/01/02 09:53:22;;;;;;;42.23;29.57;;;;;;;-144.99;100.00;52537.78;5051215;28;20644;-77
2021/01/02 09:55:48;;;;;;;40.60;28.77;;;;;;;-144.99;100.00;52545.94;5052766;28;20652;-78
2021/01/02 09:58:15;;;;;;;46.07;30.37;;;;;;;-144.99;100.00;52525.56;5051912;28;20663;-78
2021/01/02 10:00:41;;;;;;;45.70;32.37;;;;;;;-144.99;100.00;52543.91;5050924;28;20751;-76
2021/01/02 10:03:09;;;;;;;67.83;37.53;;;;;;;-144.99;100.00;52497.00;5052184;28;20679;-77
2021/01/02 10:05:36;;;;;;;48.97;38.97;;;;;;;-144.99;100.00;52545.94;5050886;28;20730;-75
2021/01/02 10:08:03;;;;;;;47.67;32.47;;;;;;;-144.99;100.00;52497.00;5051982;28;20659;-75
2021/01/02 10:10:29;;;;;;;44.33;31.07;;;;;;;-144.99;100.00;52527.59;5063205;28;20648;-76
2021/01/02 10:12:55;;;;;;;52.50;31.97;;;;;;;-144.99;100.00;52525.56;5050929;28;20707;-76
2021/01/02 10:15:22;;;;;;;53.43;34.33;;;;;;;-144.99;100.00;52513.31;5049781;28;21272;-77
2021/01/02 10:17:49;;;;;;;54.70;34.67;;;;;;;-144.99;100.00;52476.63;5067780;28;20730;-76
2021/01/02 10:20:15;;;;;;;51.13;33.40;;;;;;;-144.99;100.00;52472.56;5041728;28;20663;-76
2021/01/02 10:22:42;;;;;;;47.47;31.90;;;;;;;-144.99;100.00;52550.00;5068853;28;20710;-75
2021/01/02 10:25:09;;;;;;;43.30;32.37;;;;;;;-144.99;100.00;52570.38;5063513;28;21051;-76
2021/01/02 10:27:35;;;;;;;42.83;30.40;;;;;;;-144.99;100.00;52497.00;5070324;28;20692;-77
2021/01/02 10:30:03;;;;;;;41.30;25.83;;;;;;;-144.99;100.00;52529.63;5054759;28;20670;-76
2021/01/02 10:32:30;;;;;;;49.83;32.97;;;;;;;-144.99;100.00;52578.53;5051426;28;20868;-78
2021/01/02 10:35:00;;;;;;;49.63;32.40;;;;;;;-144.99;100.00;52525.56;5050664;28;20656;-78
2021/01/02 10:37:28;;;;;;;45.63;32.60;;;;;;;-144.99;100.00;52543.91;5049932;28;20969;-76
2021/01/02 10:39:55;;;;;;;48.23;29.13;;;;;;;-144.99;100.00;52537.78;5049429;28;20731;-76
2021/01/02 10:42:24;;;;;;;48.30;30.03;;;;;;;-144.99;100.00;52545.94;5036963;28;21069;-76
2021/01/02 10:44:51;;;;;;;43.23;27.23;;;;;;;-144.99;100.00;52511.28;5050822;28;21028;-74
2021/01/02 10:47:19;;;;;;;39.07;26.17;;;;;;;-144.99;100.00;52558.16;5050416;28;20623;-75
2021/01/02 10:49:46;;;;;;;38.30;27.53;;;;;;;-144.99;100.00;52541.84;5049745;28;20996;-73
2021/01/02 10:52:15;;;;;;;39.33;27.80;;;;;;;-144.99;100.00;52513.31;5059432;28;21289;-73
2021/01/02 10:54:43;;;;;;;37.97;27.37;;;;;;;-144.99;100.00;52488.84;5049744;28;20737;-74
2021/01/02 10:57:09;;;;;;;37.40;26.43;;;;;;;-144.99;100.00;52509.25;5049925;28;20632;-76
2021/01/02 10:59:36;;;;;;;33.90;24.43;;;;;;;-144.99;100.00;52558.16;5046129;28;20715;-75
2021/01/02 11:02:02;;;;;;;33.63;23.20;;;;;;;-144.99;100.00;52527.59;5043516;28;20689;-76
2021/01/02 11:04:28;;;;;;;36.20;26.30;;;;;;;-144.99;100.00;52505.16;5048142;28;21050;-73
2021/01/02 11:06:56;;;;;;;38.83;25.37;;;;;;;-144.99;100.00;52521.47;5049355;28;20628;-77
2021/01/02 11:09:24;;;;;;;37.50;24.70;;;;;;;-144.99;100.00;52521.47;5052860;28;20638;-74
2021/01/02 11:11:51;;;;;;;39.43;24.47;;;;;;;-144.99;100.00;52501.09;5049520;28;20716;-72
2021/01/02 11:14:17;;;;;;;34.73;26.10;;;;;;;-144.99;100.00;52517.41;5042337;28;20687;-75